Time;durP1;ratioP1;P1;durP2;ratioP2;P2;SDS_P1;SDS_P2;PMS_P1;PMS_P2;Temp;Humidity;BMP_temperature;BMP_pressure;BME280_temperature;BME280_humidity;BME280_pressure;Samples;Min_cycle;Max_cycle;Signal;HPM_P1;HPM_P2
2022/12/03 01:15:13;;;;;;;3.40;1.52;;;;;;;-0.70;100.00;102257.14;1843714;76;28936;-81
2022/12/03 01:17:57;;;;;;;3.47;1.72;;;;;;;-0.68;100.00;102258.66;1783621;79;21002;-81
2022/12/03 01:20:42;;;;;;;2.90;1.60;;;;;;;-0.68;100.00;102256.48;1803003;79;21132;-81
2022/12/03 01:23:27;;;;;;;3.90;1.60;;;;;;;-0.69;100.00;102262.36;1757333;81;21468;-80
2022/12/03 01:26:11;;;;;;;4.65;1.42;;;;;;;-0.69;100.00;102258.33;1740748;81;20973;-81
2022/12/03 01:28:56;;;;;;;3.17;1.40;;;;;;;-0.69;100.00;102264.21;1707526;82;21003;-80
2022/12/03 01:34:46;;;;;;;3.02;1.22;;;;;;;-0.71;100.00;102272.92;1706465;83;20981;-81
2022/12/03 01:37:30;;;;;;;4.17;1.60;;;;;;;-0.73;100.00;102265.52;1796866;77;21018;-81
2022/12/03 01:40:15;;;;;;;2.52;1.45;;;;;;;-0.76;100.00;102271.22;1778505;79;20970;-80
2022/12/03 01:43:00;;;;;;;2.77;1.20;;;;;;;-0.78;100.00;102272.71;1727149;79;20998;-79
2022/12/03 01:45:44;;;;;;;4.37;1.72;;;;;;;-0.79;100.00;102272.38;1707254;83;21564;-80
2022/12/03 01:48:31;;;;;;;7.37;1.65;;;;;;;-0.79;100.00;102278.23;1706948;83;20975;-79
2022/12/03 01:51:15;;;;;;;4.17;1.57;;;;;;;-0.81;100.00;102282.94;1778054;79;21014;-80
2022/12/03 01:54:00;;;;;;;2.08;1.42;;;;;;;-0.83;100.00;102291.14;1770836;79;21018;-78
2022/12/03 01:56:45;;;;;;;3.50;1.45;;;;;;;-0.85;100.00;102287.77;1765545;79;20991;-78
2022/12/03 01:59:36;;;;;;;4.85;1.50;;;;;;;-0.84;100.00;102286.78;1781182;79;20998;-79
2022/12/03 02:02:27;;;;;;;3.10;1.50;;;;;;;-0.87;100.00;102296.00;1780179;79;20975;-78
2022/12/03 02:05:19;;;;;;;3.55;1.92;;;;;;;-0.87;100.00;102290.63;1794549;79;21425;-81
2022/12/03 02:08:33;;;;;;;1.55;1.15;;;;;;;-0.88;100.00;102294.30;1788413;77;21505;-81
2022/12/03 02:11:24;;;;;;;5.62;1.80;;;;;;;-0.89;100.00;102296.65;1793685;79;21010;-78
2022/12/03 02:14:12;;;;;;;2.83;1.42;;;;;;;-0.89;100.00;102308.73;1703886;81;21526;-78
2022/12/03 02:16:56;;;;;;;2.60;1.67;;;;;;;-0.90;100.00;102304.34;1766936;80;21007;-78
2022/12/03 02:19:40;;;;;;;2.72;1.20;;;;;;;-0.90;100.00;102308.37;1739817;81;21014;-79
2022/12/03 02:22:37;;;;;;;4.28;1.55;;;;;;;-0.88;100.00;102311.74;1712786;83;21409;-78
2022/12/03 02:25:23;;;;;;;2.30;1.57;;;;;;;-0.88;100.00;102313.08;1769464;79;20959;-78
2022/12/03 02:28:07;;;;;;;3.05;1.25;;;;;;;-0.87;100.00;102311.23;1763230;80;21020;-80
2022/12/03 02:30:52;;;;;;;3.37;1.40;;;;;;;-0.88;100.00;102310.91;1766082;79;21053;-79
2022/12/03 02:33:36;;;;;;;4.62;1.30;;;;;;;-0.91;100.00;102312.06;1720616;81;21074;-80
2022/12/03 02:36:21;;;;;;;2.33;1.32;;;;;;;-0.91;100.00;102312.58;1704627;83;21023;-79
2022/12/03 02:39:05;;;;;;;3.52;1.85;;;;;;;-0.93;100.00;102318.09;1729075;80;20979;-79
2022/12/03 02:44:53;;;;;;;;;;;;;;;-0.96;100.00;102321.09;1773512;79;21018;-80
2022/12/03 02:47:45;;;;;;;2.90;1.70;;;;;;;-0.96;100.00;102329.14;1777949;78;20209;-79
2022/12/03 02:50:33;;;;;;;3.77;1.42;;;;;;;-0.97;100.00;102329.29;1787863;79;20978;-80
2022/12/03 02:53:23;;;;;;;2.40;1.62;;;;;;;-0.99;100.00;102325.91;1784768;79;21029;-79
2022/12/03 02:56:08;;;;;;;4.50;2.08;;;;;;;-0.98;100.00;102333.82;1786771;79;21050;-81
2022/12/03 02:58:55;;;;;;;5.90;2.22;;;;;;;-0.98;100.00;102329.80;1771805;79;20993;-79
2022/12/03 03:01:40;;;;;;;9.50;1.72;;;;;;;-0.96;100.00;102326.97;1731428;81;21006;-80
2022/12/03 03:04:25;;;;;;;3.20;1.45;;;;;;;-0.96;100.00;102341.73;1741608;81;21003;-79
2022/12/03 03:07:09;;;;;;;2.70;1.27;;;;;;;-0.97;100.00;102332.81;1739460;81;21022;-80
2022/12/03 03:09:53;;;;;;;3.05;1.42;;;;;;;-0.96;100.00;102340.38;1787593;79;21037;-80
2022/12/03 03:12:38;;;;;;;5.75;2.10;;;;;;;-0.97;100.00;102336.84;1777688;79;20995;-79
2022/12/03 03:15:23;;;;;;;3.75;1.92;;;;;;;-0.96;100.00;102341.22;1770723;79;21026;-79
2022/12/03 03:18:08;;;;;;;4.85;1.52;;;;;;;-0.97;100.00;102348.08;1792275;79;20986;-79
2022/12/03 03:20:53;;;;;;;4.45;1.90;;;;;;;-0.98;100.00;102342.37;1792611;79;20973;-78
2022/12/03 03:23:37;;;;;;;7.03;1.95;;;;;;;-0.98;100.00;102347.75;1787175;80;21045;-79
2022/12/03 03:26:21;;;;;;;7.17;1.90;;;;;;;-1.00;100.00;102345.71;1786827;80;21013;-80
2022/12/03 03:29:06;;;;;;;5.10;2.12;;;;;;;-1.01;100.00;102348.91;1787037;80;21029;-79
2022/12/03 03:31:51;;;;;;;9.05;2.80;;;;;;;-1.03;100.00;102350.06;1787338;79;20966;-79
2022/12/03 03:34:35;;;;;;;6.75;2.12;;;;;;;-1.06;100.00;102353.89;1723378;81;21037;-81
2022/12/03 03:37:20;;;;;;;4.85;2.25;;;;;;;-1.07;100.00;102358.90;1720143;82;21002;-82
2022/12/03 03:40:06;;;;;;;5.03;2.60;;;;;;;-1.08;100.00;102354.55;1726004;83;21552;-79
2022/12/03 03:42:50;;;;;;;5.55;2.27;;;;;;;-1.10;100.00;102362.73;1778069;80;20945;-80
2022/12/03 03:45:35;;;;;;;5.87;2.20;;;;;;;-1.10;100.00;102359.22;1778884;80;20979;-80
2022/12/03 03:48:19;;;;;;;5.20;2.37;;;;;;;-1.13;100.00;102366.25;1793497;79;21026;-79
2022/12/03 03:51:07;;;;;;;6.37;2.52;;;;;;;-1.14;100.00;102367.22;1795350;79;21046;-79
2022/12/03 03:53:51;;;;;;;12.60;3.15;;;;;;;-1.15;100.00;102372.26;1793029;79;21021;-79
2022/12/03 03:56:37;;;;;;;4.30;2.40;;;;;;;-1.17;100.00;102375.09;1784398;79;20998;-78
2022/12/03 07:19:22;;;;;;;8.65;3.00;;;;;;;-2.22;100.00;102586.77;1827425;77;28969;-77
2022/12/03 07:22:06;;;;;;;10.00;2.90;;;;;;;-2.20;100.00;102584.79;1761622;79;21063;-77
2022/12/03 07:24:51;;;;;;;7.33;3.12;;;;;;;-2.22;100.00;102590.78;1760302;80;21038;-77
2022/12/03 07:27:35;;;;;;;7.87;2.80;;;;;;;-2.27;100.00;102590.36;1740314;81;21030;-78
2022/12/03 07:30:20;;;;;;;4.50;2.42;;;;;;;-2.31;100.00;102596.98;1718435;81;21532;-78
2022/12/03 07:33:05;;;;;;;6.45;3.02;;;;;;;-2.33;100.00;102589.58;1739709;82;20995;-77
2022/12/03 07:35:49;;;;;;;5.47;2.67;;;;;;;-2.33;100.00;102592.25;1735246;81;21018;-77
2022/12/03 07:38:34;;;;;;;9.08;3.02;;;;;;;-2.33;100.00;102592.76;1703287;84;21032;-78
2022/12/03 07:41:18;;;;;;;9.05;3.85;;;;;;;-2.38;100.00;102611.42;1732269;81;21010;-77
2022/12/03 07:44:02;;;;;;;10.20;3.67;;;;;;;-2.42;100.00;102606.02;1711151;81;21050;-77
2022/12/03 07:46:47;;;;;;;7.47;3.27;;;;;;;-2.44;100.00;102612.50;1739344;81;20990;-77
2022/12/03 07:49:31;;;;;;;9.73;3.85;;;;;;;-2.45;100.00;102621.50;1739791;82;21085;-77
2022/12/03 07:52:16;;;;;;;8.75;2.80;;;;;;;-2.48;100.00;102602.55;1726094;81;20997;-77
2022/12/03 07:55:00;;;;;;;5.70;2.58;;;;;;;-2.51;100.00;102614.05;1710732;82;21451;-78
2022/12/03 07:57:44;;;;;;;10.58;3.30;;;;;;;-2.55;100.00;102614.80;1693051;84;21019;-78
2022/12/03 08:00:29;;;;;;;7.80;3.10;;;;;;;-2.56;100.00;102617.64;1671427;84;21066;-77
2022/12/03 08:03:13;;;;;;;3.55;1.82;;;;;;;-2.58;100.00;102620.94;1663768;84;21063;-76
2022/12/03 08:05:58;;;;;;;4.35;2.55;;;;;;;-2.59;100.00;102628.13;1658579;85;21011;-77
2022/12/03 08:08:43;;;;;;;12.75;3.92;;;;;;;-2.58;100.00;102619.60;1662467;84;20972;-76
2022/12/03 08:11:28;;;;;;;20.60;4.78;;;;;;;-2.57;100.00;102627.50;1678157;84;21548;-76
2022/12/03 08:14:13;;;;;;;9.50;3.83;;;;;;;-2.53;100.00;102624.05;1678845;84;21494;-77
2022/12/03 08:16:58;;;;;;;5.42;2.72;;;;;;;-2.51;100.00;102630.11;1668852;83;21079;-76
2022/12/03 08:19:45;;;;;;;11.63;4.42;;;;;;;-2.51;100.00;102618.06;1677464;84;21732;-76
2022/12/03 08:22:30;;;;;;;12.45;3.22;;;;;;;-2.50;100.00;102629.11;1720850;82;20982;-78
2022/12/03 08:25:30;;;;;;;6.78;3.50;;;;;;;-2.51;100.00;102629.61;1739357;82;21548;-77
2022/12/03 08:28:22;;;;;;;4.87;2.12;;;;;;;-2.48;100.00;102633.84;1738673;81;20986;-77
2022/12/03 08:31:24;;;;;;;11.08;3.80;;;;;;;-2.49;100.00;102637.52;1738655;81;21014;-77
2022/12/03 08:34:18;;;;;;;18.48;5.95;;;;;;;-2.47;100.00;102630.19;1724355;82;20998;-76
2022/12/03 08:37:18;;;;;;;7.20;3.72;;;;;;;-2.45;100.00;102639.78;1738975;82;21042;-76
2022/12/03 08:40:19;;;;;;;12.20;4.35;;;;;;;-2.41;100.00;102638.98;1739050;81;21019;-78
2022/12/03 08:43:24;;;;;;;7.00;2.92;;;;;;;-2.43;100.00;102632.92;1739560;81;20979;-78
2022/12/03 08:46:14;;;;;;;9.85;3.65;;;;;;;-2.48;100.00;102641.37;1725105;82;21058;-77
2022/12/03 08:49:00;;;;;;;9.10;2.65;;;;;;;-2.58;100.00;102642.36;1739110;82;20986;-78
2022/12/03 08:51:45;;;;;;;8.93;2.87;;;;;;;-2.63;100.00;102640.93;1739136;82;21059;-78
2022/12/03 08:54:29;;;;;;;8.10;3.30;;;;;;;-2.64;100.00;102635.23;1739300;82;21034;-78
2022/12/03 08:57:31;;;;;;;6.45;3.12;;;;;;;-2.64;100.00;102642.42;1701153;81;20975;-77
2022/12/03 09:00:23;;;;;;;6.95;2.98;;;;;;;-2.61;100.00;102638.12;1738640;81;21314;-77
2022/12/03 09:03:11;;;;;;;12.90;4.28;;;;;;;-2.54;100.00;102641.10;1739051;82;20994;-77
2022/12/03 09:05:56;;;;;;;9.68;3.85;;;;;;;-2.47;100.00;102640.41;1731841;81;21034;-77
2022/12/03 09:08:41;;;;;;;7.92;3.30;;;;;;;-2.42;100.00;102647.52;1738737;81;21023;-77
2022/12/03 09:11:26;;;;;;;3.65;2.33;;;;;;;-2.35;100.00;102641.59;1726249;80;21394;-78
2022/12/03 09:14:12;;;;;;;8.63;2.98;;;;;;;-2.33;100.00;102646.31;1738903;81;21054;-78
2022/12/03 09:16:56;;;;;;;7.83;3.12;;;;;;;-2.32;100.00;102637.31;1723829;81;21527;-78
2022/12/03 09:19:43;;;;;;;4.20;2.95;;;;;;;-2.29;100.00;102628.48;1737440;81;21642;-79
2022/12/03 09:22:28;;;;;;;6.75;2.85;;;;;;;-2.26;100.00;102632.22;1738880;81;21093;-92
2022/12/03 09:25:12;;;;;;;4.03;2.17;;;;;;;-2.27;100.00;102631.04;1733677;80;21015;-79
2022/12/03 09:27:57;;;;;;;6.97;2.35;;;;;;;-2.33;100.00;102631.59;1727112;81;21625;-78
2022/12/03 09:30:41;;;;;;;4.78;2.67;;;;;;;-2.41;100.00;102634.47;1732385;81;21011;-78
2022/12/03 09:33:25;;;;;;;8.15;2.95;;;;;;;-2.45;100.00;102625.52;1730146;81;20978;-78
2022/12/03 09:36:10;;;;;;;6.67;3.00;;;;;;;-2.47;100.00;102630.19;1736884;81;20966;-79
2022/12/03 09:38:54;;;;;;;5.85;2.75;;;;;;;-2.44;100.00;102632.58;1722386;81;21011;-79
2022/12/03 09:41:38;;;;;;;6.70;2.47;;;;;;;-2.38;100.00;102634.68;1728381;81;21018;-78
2022/12/03 09:44:23;;;;;;;5.60;2.52;;;;;;;-2.30;100.00;102642.88;1728047;81;20963;-78
2022/12/03 09:47:07;;;;;;;5.70;2.72;;;;;;;-2.27;100.00;102633.22;1705510;82;21036;-78
2022/12/03 09:49:51;;;;;;;3.75;2.05;;;;;;;-2.24;100.00;102631.59;1719017;81;21018;-78
2022/12/03 09:52:36;;;;;;;7.15;2.37;;;;;;;-2.23;100.00;102637.28;1730525;81;21045;-78
2022/12/03 09:55:23;;;;;;;7.83;2.45;;;;;;;-2.22;100.00;102644.34;1735494;82;21133;-78
2022/12/03 09:58:13;;;;;;;7.03;3.40;;;;;;;-2.24;100.00;102638.28;1727772;82;21046;-78
2022/12/03 10:00:57;;;;;;;5.75;2.67;;;;;;;-2.26;100.00;102640.25;1737314;80;21049;-78
2022/12/03 10:03:47;;;;;;;5.58;2.92;;;;;;;-2.29;100.00;102640.55;1723636;81;20984;-78
2022/12/03 13:20:42;;;;;;;9.15;4.33;;;;;;;-1.45;100.00;102680.56;1809144;78;28905;-79
2022/12/03 13:23:30;;;;;;;6.33;3.12;;;;;;;-1.47;100.00;102680.70;1790969;78;21506;-79
2022/12/03 13:26:26;;;;;;;5.67;2.92;;;;;;;-1.53;100.00;102685.31;1789463;80;21490;-80
2022/12/03 13:29:15;;;;;;;6.42;2.50;;;;;;;-1.58;100.00;102688.92;1780191;79;21029;-79
2022/12/03 13:32:01;;;;;;;7.17;3.40;;;;;;;-1.60;100.00;102692.24;1768899;80;21009;-79
2022/12/03 13:34:46;;;;;;;4.70;2.45;;;;;;;-1.64;100.00;102690.33;1786542;79;21028;-80
2022/12/03 13:37:30;;;;;;;5.50;2.50;;;;;;;-1.66;100.00;102688.78;1774825;80;21332;-79
2022/12/03 13:40:33;;;;;;;5.22;3.67;;;;;;;-1.69;100.00;102689.08;1785355;80;20998;-79
2022/12/03 13:43:18;;;;;;;;;;;;;;;-1.73;100.00;102692.55;1793517;80;21002;-79
2022/12/03 13:46:02;;;;;;;4.40;2.02;;;;;;;-1.78;100.00;102699.68;1788228;78;20155;-80
2022/12/03 13:48:47;;;;;;;5.75;2.40;;;;;;;-1.83;100.00;102696.58;1780200;80;20994;-79
2022/12/03 13:51:32;;;;;;;4.55;2.20;;;;;;;-1.87;100.00;102704.55;1773627;80;21002;-80
2022/12/03 13:54:22;;;;;;;7.62;2.92;;;;;;;-1.90;100.00;102708.86;1773862;80;21013;-80
2022/12/03 13:57:07;;;;;;;7.47;2.87;;;;;;;-1.93;100.00;102712.30;1787182;79;20994;-79
2022/12/03 13:59:51;;;;;;;4.17;2.30;;;;;;;-1.99;100.00;102712.38;1775859;80;21013;-79
2022/12/03 14:02:35;;;;;;;3.35;2.35;;;;;;;-2.04;100.00;102715.48;1780420;80;21016;-79
2022/12/03 14:05:20;;;;;;;8.50;3.92;;;;;;;-2.09;100.00;102720.91;1780349;80;21002;-79
2022/12/03 14:08:05;;;;;;;5.72;2.37;;;;;;;-2.14;100.00;102728.52;1780397;80;20963;-80
2022/12/03 14:10:49;;;;;;;7.22;2.92;;;;;;;-2.17;100.00;102731.83;1752147;80;20930;-78
2022/12/03 14:13:34;;;;;;;6.47;2.83;;;;;;;-2.20;100.00;102722.73;1700624;83;21010;-79
2022/12/03 14:16:19;;;;;;;8.60;3.25;;;;;;;-2.19;100.00;102724.42;1711324;83;21038;-79
2022/12/03 14:19:03;;;;;;;7.22;3.30;;;;;;;-2.17;100.00;102725.13;1695642;83;21059;-78
2022/12/03 14:21:48;;;;;;;15.53;5.28;;;;;;;-2.14;100.00;102725.84;1710930;83;20991;-79
2022/12/03 14:24:32;;;;;;;7.90;3.60;;;;;;;-2.10;100.00;102733.94;1710405;83;21465;-79
2022/12/03 14:27:17;;;;;;;5.28;2.87;;;;;;;-2.08;100.00;102730.63;1770323;80;21412;-78
2022/12/03 14:30:02;;;;;;;4.45;2.25;;;;;;;-2.07;100.00;102732.34;1702791;83;21038;-78
2022/12/03 14:32:47;;;;;;;6.75;3.25;;;;;;;-2.07;100.00;102742.55;1707397;83;21004;-78
2022/12/03 14:35:32;;;;;;;10.10;4.37;;;;;;;-2.09;100.00;102744.52;1711117;83;21073;-78
2022/12/03 14:38:17;;;;;;;6.85;2.58;;;;;;;-2.10;100.00;102750.01;1725602;82;21038;-78
2022/12/03 14:41:02;;;;;;;9.80;2.77;;;;;;;-2.18;100.00;102751.58;1680919;83;21013;-78
2022/12/03 14:43:46;;;;;;;6.33;2.83;;;;;;;-2.23;100.00;102752.45;1777883;80;21049;-79
2022/12/03 14:46:31;;;;;;;7.83;2.67;;;;;;;-2.25;100.00;102758.94;1779605;79;21006;-79
2022/12/03 14:49:16;;;;;;;9.90;3.72;;;;;;;-2.29;100.00;102761.06;1727667;82;20979;-79
2022/12/03 14:52:00;;;;;;;4.83;2.47;;;;;;;-2.37;100.00;102760.91;1767418;80;21031;-79
2022/12/03 14:54:45;;;;;;;3.20;1.82;;;;;;;-2.41;100.00;102762.16;1740818;80;21038;-79
2022/12/03 14:57:29;;;;;;;8.60;2.92;;;;;;;-2.41;100.00;102771.03;1760044;80;20967;-79
2022/12/03 15:00:15;;;;;;;4.85;1.47;;;;;;;-2.43;100.00;102766.80;1752073;80;20987;-79
2022/12/03 15:03:00;;;;;;;7.65;3.20;;;;;;;-2.44;100.00;102773.16;1710970;81;21065;-79
2022/12/03 15:05:44;;;;;;;6.15;2.20;;;;;;;-2.47;100.00;102770.76;1729578;82;21002;-79
2022/12/03 15:08:29;;;;;;;2.22;1.32;;;;;;;-2.48;100.00;102775.73;1696508;82;21519;-79
2022/12/03 15:11:13;;;;;;;3.58;1.90;;;;;;;-2.50;100.00;102775.86;1727211;82;21014;-79
2022/12/03 15:13:57;;;;;;;5.83;3.00;;;;;;;-2.53;100.00;102779.31;1726244;82;21038;-79
2022/12/03 15:16:42;;;;;;;5.45;2.30;;;;;;;-2.54;100.00;102766.93;1771556;80;21025;-78
2022/12/03 15:19:27;;;;;;;4.33;2.83;;;;;;;-2.53;100.00;102791.36;1690941;83;20924;-80
2022/12/03 15:22:12;;;;;;;10.35;3.77;;;;;;;-2.53;100.00;102795.38;1687787;84;21019;-79
2022/12/03 15:24:57;;;;;;;4.20;2.12;;;;;;;-2.52;100.00;102791.70;1680524;84;22002;-79
2022/12/03 15:27:41;;;;;;;2.55;1.98;;;;;;;-2.51;100.00;102793.42;1684228;84;21050;-77
2022/12/03 15:30:25;;;;;;;5.00;2.35;;;;;;;-2.54;100.00;102795.87;1653042;85;21112;-79
2022/12/03 15:33:10;;;;;;;3.72;2.42;;;;;;;-2.57;100.00;102801.98;1739935;81;20990;-79
2022/12/03 15:35:54;;;;;;;5.75;2.22;;;;;;;-2.61;100.00;102806.77;1697507;83;20986;-80
2022/12/03 15:38:38;;;;;;;3.62;1.65;;;;;;;-2.64;100.00;102811.91;1718036;81;21437;-78
2022/12/03 15:41:28;;;;;;;4.78;2.00;;;;;;;-2.66;100.00;102809.84;1676651;84;21498;-78
2022/12/03 15:44:09;;;;;;;5.90;2.40;;;;;;;-2.69;100.00;102804.77;1670300;84;21239;-78
2022/12/03 15:46:53;;;;;;;5.90;2.45;;;;;;;-2.73;100.00;102808.69;1670418;85;21015;-78
2022/12/03 15:49:38;;;;;;;4.58;2.58;;;;;;;-2.76;100.00;102812.13;1669824;84;21075;-78
2022/12/03 15:52:22;;;;;;;3.50;2.17;;;;;;;-2.76;100.00;102816.98;1669330;85;21071;-78
2022/12/03 15:55:07;;;;;;;4.53;2.35;;;;;;;-2.77;100.00;102815.27;1652598;86;21023;-79
2022/12/03 15:57:52;;;;;;;4.37;2.17;;;;;;;-2.75;100.00;102819.17;1661860;84;21654;-79
